Ledbetter, Texas
Current Conditions -  °F | °C
As of 1:15 PM on Friday 24 Oct 2014 (Local Time) from KGYB Reporting Station
Haze Haze  
Wind Chill: 26°   Ceiling: Unl
Heat Index: 26°   Visibility: 2.5mi
Dew Point: 13°   Wind: 3mph
Humidity: 44%   Direction: 70°ENE
Pressure: 30.2"   Gusts: NA
Location:  30.15°N, 96.79°W
Report Text: KGYB 241815Z AUTO 07003KT 2 1/2SM HZ CLR 26/13 A3020 RMK AO2 VIS 1V5 T02620130
Loading
Personal Weather Stations






























Interactive Weather Map
Tropical Storm Tracking
New forecast layout! Learn more

10-Day Weather Forecast

Advertisements
Track Severe Weather on mobile